Time;durP1;ratioP1;P1;durP2;ratioP2;P2;SDS_P1;SDS_P2;PMS_P1;PMS_P2;Temp;Humidity;BMP_temperature;BMP_pressure;BME280_temperature;BME280_humidity;BME280_pressure;Samples;Min_cycle;Max_cycle;Signal;HPM_P1;HPM_P2
2023/04/04 00:00:43;;;;;;;;;;;;;;;7.76;67.54;102462.31;7358258;19;19919;-63
2023/04/04 00:03:10;;;;;;;;;;;;;;;7.76;67.03;102454.47;7353985;19;20355;-63
2023/04/04 00:05:37;;;;;;;;;;;;;;;7.77;67.50;102459.63;7356815;19;19919;-64
2023/04/04 00:08:04;;;;;;;;;;;;;;;7.80;67.58;102455.94;7357859;19;20133;-65
2023/04/04 00:10:31;;;;;;;;;;;;;;;7.80;67.84;102453.31;7354531;19;20216;-63
2023/04/04 00:12:59;;;;;;;;;;;;;;;7.79;67.12;102452.47;7356699;19;19927;-64
2023/04/04 00:15:26;;;;;;;;;;;;;;;7.81;67.42;102444.53;7357288;19;19922;-63
2023/04/04 00:17:53;;;;;;;;;;;;;;;7.74;66.75;102447.53;7354867;19;19918;-66
2023/04/04 00:20:20;;;;;;;;;;;;;;;7.79;65.72;102442.00;7352065;19;20171;-63
2023/04/04 00:22:47;;;;;;;;;;;;;;;7.82;65.29;102444.47;7355413;19;21522;-62
2023/04/04 00:25:14;;;;;;;;;;;;;;;7.79;66.76;102435.91;7355898;19;19910;-65
2023/04/04 00:27:41;;;;;;;;;;;;;;;7.74;67.14;102430.97;7354554;19;20208;-63
2023/04/04 00:30:08;;;;;;;;;;;;;;;7.74;67.76;102428.34;7355128;19;20583;-62
2023/04/04 00:32:35;;;;;;;;;;;;;;;7.72;68.50;102427.59;7356357;19;20398;-63
2023/04/04 00:35:02;;;;;;;;;;;;;;;7.71;68.33;102418.91;7352918;19;20297;-64
2023/04/04 00:37:29;;;;;;;;;;;;;;;7.70;69.07;102425.09;7354946;19;20513;-63
2023/04/04 00:39:56;;;;;;;;;;;;;;;7.70;67.43;102419.00;7356214;19;20009;-62
2023/04/04 00:42:23;;;;;;;;;;;;;;;7.69;66.54;102430.41;7356697;19;19948;-64
2023/04/04 00:44:51;;;;;;;;;;;;;;;7.61;66.73;102427.44;7350337;19;19953;-64
2023/04/04 00:47:21;;;;;;;;;;;;;;;7.63;66.78;102423.75;7350440;19;19927;-64
2023/04/04 00:49:48;;;;;;;;;;;;;;;7.64;67.42;102422.00;7355487;19;20007;-63
2023/04/04 00:52:15;;;;;;;;;;;;;;;7.60;66.89;102421.34;7355899;19;19923;-64
2023/04/04 00:54:42;;;;;;;;;;;;;;;7.60;66.59;102421.34;7349746;19;19923;-63
2023/04/04 00:57:09;;;;;;;;;;;;;;;7.57;67.56;102416.28;7352117;19;19919;-63
2023/04/04 00:59:36;;;;;;;;;;;;;;;7.53;68.45;102414.78;7354170;19;20269;-65
2023/04/04 01:02:07;;;;;;;;;;;;;;;7.54;68.63;102410.41;7350801;19;21702;-64
2023/04/04 01:04:34;;;;;;;;;;;;;;;7.55;68.45;102418.16;7352924;19;19929;-63
2023/04/04 01:07:03;;;;;;;;;;;;;;;7.53;67.98;102413.94;7355768;19;19926;-63
2023/04/04 01:09:30;;;;;;;;;;;;;;;7.50;67.89;102412.38;7358567;19;19926;-63
2023/04/04 01:11:57;;;;;;;;;;;;;;;7.49;67.66;102409.84;7354256;19;20022;-64
2023/04/04 01:14:24;;;;;;;;;;;;;;;7.47;67.13;102412.53;7354121;19;19923;-63
2023/04/04 01:16:51;;;;;;;;;;;;;;;7.45;67.20;102411.81;7352943;19;19995;-64
2023/04/04 01:19:23;;;;;;;;;;;;;;;7.42;67.21;102408.50;7352631;19;19943;-64
2023/04/04 01:21:51;;;;;;;;;;;;;;;7.40;67.02;102410.41;7353665;19;20922;-65
2023/04/04 01:24:21;;;;;;;;;;;;;;;7.35;67.52;102408.06;7351016;19;20603;-63
2023/04/04 01:26:49;;;;;;;;;;;;;;;7.28;67.35;102398.88;7352713;19;19937;-65
2023/04/04 01:29:16;;;;;;;;;;;;;;;7.23;67.36;102390.47;7354693;19;20254;-64
2023/04/04 01:31:48;;;;;;;;;;;;;;;7.16;67.85;102395.22;7353242;19;21058;-63
2023/04/04 01:34:19;;;;;;;;;;;;;;;7.15;68.40;102395.34;7352403;19;19918;-64
2023/04/04 01:36:52;;;;;;;;;;;;;;;7.10;68.45;102397.38;7355408;19;19926;-63
2023/04/04 01:39:23;;;;;;;;;;;;;;;7.08;69.85;102399.25;7352507;19;19925;-63
2023/04/04 01:41:50;;;;;;;;;;;;;;;7.08;69.74;102399.25;7354734;19;20475;-63
2023/04/04 01:44:18;;;;;;;;;;;;;;;7.08;68.75;102394.00;7350568;19;19915;-63
2023/04/04 01:46:45;;;;;;;;;;;;;;;7.05;68.73;102386.34;7348385;19;20887;-63
2023/04/04 01:49:12;;;;;;;;;;;;;;;7.07;69.31;102387.09;7353408;19;20432;-66
2023/04/04 01:51:39;;;;;;;;;;;;;;;7.01;68.76;102387.47;7351397;19;19918;-64
2023/04/04 01:54:06;;;;;;;;;;;;;;;7.00;69.32;102393.63;7350597;19;19918;-63
2023/04/04 01:56:33;;;;;;;;;;;;;;;6.98;69.96;102396.31;7349277;19;19945;-63
2023/04/04 01:59:00;;;;;;;;;;;;;;;6.96;69.32;102400.78;7351240;19;20208;-63
2023/04/04 02:01:28;;;;;;;;;;;;;;;6.94;70.21;102396.59;7353531;19;20552;-63
2023/04/04 02:03:54;;;;;;;;;;;;;;;6.93;69.73;102394.91;7349531;19;19914;-64
2023/04/04 02:06:22;;;;;;;;;;;;;;;6.93;69.77;102390.53;7351004;19;19949;-63
2023/04/04 02:08:49;;;;;;;;;;;;;;;6.94;69.72;102388.75;7352495;19;19919;-65
2023/04/04 02:11:16;;;;;;;;;;;;;;;6.92;69.55;102388.00;7352926;19;19922;-64
2023/04/04 02:13:43;;;;;;;;;;;;;;;6.88;69.77;102385.56;7349791;19;19935;-62
2023/04/04 02:16:10;;;;;;;;;;;;;;;6.83;70.15;102385.00;7353016;19;20479;-63
2023/04/04 02:18:37;;;;;;;;;;;;;;;6.82;69.80;102387.69;7355552;19;19925;-63
2023/04/04 02:21:04;;;;;;;;;;;;;;;6.78;70.99;102391.44;7354001;19;19987;-63
2023/04/04 02:23:31;;;;;;;;;;;;;;;6.77;70.36;102384.50;7358200;19;20331;-65
2023/04/04 02:25:58;;;;;;;;;;;;;;;6.75;70.85;102378.53;7358321;19;19925;-63
2023/04/04 02:28:27;;;;;;;;;;;;;;;6.70;70.76;102375.34;7361191;19;20007;-63
2023/04/04 02:30:54;;;;;;;;;;;;;;;6.69;71.37;102374.50;7361325;19;19922;-66
2023/04/04 02:33:21;;;;;;;;;;;;;;;6.68;71.41;102380.66;7359441;19;19915;-63
2023/04/04 02:35:48;;;;;;;;;;;;;;;6.67;71.91;102371.13;7357498;19;19961;-64
2023/04/04 02:38:15;;;;;;;;;;;;;;;6.63;71.66;102377.47;7356937;19;19935;-64
2023/04/04 02:40:44;;;;;;;;;;;;;;;6.66;72.24;102376.44;7361150;19;19915;-64
2023/04/04 02:43:11;;;;;;;;;;;;;;;6.71;71.40;102382.25;7360237;19;20397;-63
2023/04/04 02:45:38;;;;;;;;;;;;;;;6.72;71.57;102383.94;7356122;19;19943;-64
2023/04/04 02:48:06;;;;;;;;;;;;;;;6.69;71.04;102390.19;7355830;19;19925;-64
2023/04/04 02:50:33;;;;;;;;;;;;;;;6.62;71.61;102394.09;7361897;19;19982;-63
2023/04/04 02:53:01;;;;;;;;;;;;;;;6.59;71.58;102383.81;7356406;19;19917;-64
2023/04/04 02:55:28;;;;;;;;;;;;;;;6.56;71.93;102386.59;7357945;19;19939;-64
2023/04/04 02:57:55;;;;;;;;;;;;;;;6.53;71.99;102383.31;7356955;19;20329;-64
2023/04/04 03:00:22;;;;;;;;;;;;;;;6.54;72.20;102379.78;7359726;19;19915;-63
2023/04/04 03:02:53;;;;;;;;;;;;;;;6.55;72.71;102379.69;7356894;19;20268;-64
2023/04/04 03:05:24;;;;;;;;;;;;;;;6.54;72.02;102383.25;7359708;19;19927;-64
2023/04/04 03:07:52;;;;;;;;;;;;;;;6.54;72.23;102380.63;7359878;19;20024;-63
2023/04/04 03:10:20;;;;;;;;;;;;;;;6.56;71.79;102380.50;7359123;19;19923;-63
2023/04/04 03:12:47;;;;;;;;;;;;;;;6.57;72.86;102395.28;7359789;19;19925;-64
2023/04/04 03:15:16;;;;;;;;;;;;;;;6.56;71.92;102386.59;7355807;19;19930;-64
2023/04/04 03:17:43;;;;;;;;;;;;;;;6.56;72.42;102389.19;7354236;19;20419;-65
2023/04/04 03:20:11;;;;;;;;;;;;;;;6.54;72.11;102391.09;7357930;19;20257;-64
2023/04/04 03:22:38;;;;;;;;;;;;;;;6.55;72.05;102395.38;7355981;19;20987;-63
2023/04/04 03:25:05;;;;;;;;;;;;;;;6.57;71.81;102398.75;7354620;19;19911;-64
2023/04/04 03:27:33;;;;;;;;;;;;;;;6.51;72.30;102393.84;7353970;19;19915;-64
2023/04/04 03:30:00;;;;;;;;;;;;;;;6.45;73.30;102386.34;7358214;19;19946;-64
2023/04/04 03:32:27;;;;;;;;;;;;;;;6.40;73.04;102404.06;7355906;19;20333;-62
2023/04/04 03:34:54;;;;;;;;;;;;;;;6.42;74.05;102397.00;7353770;19;19923;-64
2023/04/04 03:37:21;;;;;;;;;;;;;;;6.42;74.12;102394.38;7358226;19;20783;-65
2023/04/04 03:39:49;;;;;;;;;;;;;;;6.41;73.46;102395.31;7357102;19;19919;-63
2023/04/04 03:42:15;;;;;;;;;;;;;;;6.37;72.99;102405.09;7358736;19;19919;-64
2023/04/04 03:44:42;;;;;;;;;;;;;;;6.38;73.69;102405.94;7355965;19;19986;-63
2023/04/04 03:47:09;;;;;;;;;;;;;;;6.37;73.52;102399.03;7352404;19;19915;-68
2023/04/04 03:49:36;;;;;;;;;;;;;;;6.41;74.74;102406.59;7357267;19;20014;-64
2023/04/04 03:52:03;;;;;;;;;;;;;;;6.40;72.42;102391.00;7356055;19;19945;-62
2023/04/04 03:54:30;;;;;;;;;;;;;;;6.38;72.04;102398.94;7356901;19;20652;-64
2023/04/04 03:56:57;;;;;;;;;;;;;;;6.34;72.49;102401.84;7355211;19;20201;-63
2023/04/04 03:59:24;;;;;;;;;;;;;;;6.31;72.62;102399.38;7357192;19;20371;-63
2023/04/04 04:01:51;;;;;;;;;;;;;;;6.26;73.85;102397.00;7357063;19;19998;-63
2023/04/04 04:04:18;;;;;;;;;;;;;;;6.27;74.65;102400.47;7351224;19;19968;-66
2023/04/04 04:06:48;;;;;;;;;;;;;;;6.27;74.16;102397.88;7353383;19;19930;-63
2023/04/04 04:09:14;;;;;;;;;;;;;;;6.26;73.47;102404.84;7358328;19;19918;-65
2023/04/04 04:11:41;;;;;;;;;;;;;;;6.24;73.64;102406.72;7356706;19;19927;-63
2023/04/04 04:14:08;;;;;;;;;;;;;;;6.24;72.98;102403.28;7352195;19;19914;-64
2023/04/04 04:16:38;;;;;;;;;;;;;;;6.27;72.95;102409.16;7354193;19;20001;-64
2023/04/04 04:19:05;;;;;;;;;;;;;;;6.22;72.87;102408.56;7352430;19;20340;-64
2023/04/04 04:21:31;;;;;;;;;;;;;;;6.17;73.29;102404.53;7358756;19;19919;-64
2023/04/04 04:23:58;;;;;;;;;;;;;;;6.13;73.82;102401.25;7351515;19;20672;-63
2023/04/04 04:26:26;;;;;;;;;;;;;;;6.14;74.95;102402.94;7351900;19;20368;-62
2023/04/04 04:28:53;;;;;;;;;;;;;;;6.14;73.68;102400.34;7355404;19;19915;-63
2023/04/04 04:31:20;;;;;;;;;;;;;;;6.15;72.96;102398.53;7354904;19;20244;-64
2023/04/04 04:33:47;;;;;;;;;;;;;;;6.14;73.43;102397.72;7354524;19;20010;-64
2023/04/04 04:36:14;;;;;;;;;;;;;;;6.15;73.21;102395.91;7353767;19;19998;-64
2023/04/04 04:38:41;;;;;;;;;;;;;;;6.12;73.97;102391.72;7354674;19;19927;-63
2023/04/04 04:41:08;;;;;;;;;;;;;;;6.11;73.92;102394.41;7355893;19;19974;-64
2023/04/04 04:43:36;;;;;;;;;;;;;;;6.13;73.49;102392.56;7356418;19;19934;-65
2023/04/04 04:46:02;;;;;;;;;;;;;;;6.13;73.82;102390.81;7351935;19;20361;-64
2023/04/04 04:48:29;;;;;;;;;;;;;;;6.10;74.13;102390.09;7354804;19;20249;-65
2023/04/04 04:50:56;;;;;;;;;;;;;;;6.07;74.84;102385.91;7356939;19;19919;-65
2023/04/04 04:53:23;;;;;;;;;;;;;;;6.06;75.42;102396.44;7354929;19;20218;-64
2023/04/04 04:55:51;;;;;;;;;;;;;;;6.02;75.40;102380.09;7355901;19;19922;-63
2023/04/04 04:58:21;;;;;;;;;;;;;;;6.03;75.60;102378.34;7353894;19;20330;-63
2023/04/04 05:00:48;;;;;;;;;;;;;;;6.04;75.57;102373.03;7354153;19;19926;-64
2023/04/04 05:03:15;;;;;;;;;;;;;;;6.03;75.04;102375.72;7355055;19;21795;-67
2023/04/04 05:05:42;;;;;;;;;;;;;;;5.98;74.40;102376.81;7352886;19;20470;-63
2023/04/04 05:08:09;;;;;;;;;;;;;;;5.95;75.48;102384.81;7354529;19;19922;-64
2023/04/04 05:10:36;;;;;;;;;;;;;;;5.89;75.46;102381.72;7354220;19;19927;-63
2023/04/04 05:13:03;;;;;;;;;;;;;;;5.93;75.73;102383.22;7355709;19;19918;-62
2023/04/04 05:15:31;;;;;;;;;;;;;;;5.94;76.07;102392.75;7353753;19;20386;-64
2023/04/04 05:17:58;;;;;;;;;;;;;;;5.98;75.74;102391.66;7348947;19;20536;-64
2023/04/04 05:20:25;;;;;;;;;;;;;;;5.99;74.75;102388.13;7352933;19;19929;-65
2023/04/04 05:22:52;;;;;;;;;;;;;;;5.99;74.56;102394.16;7354371;19;20267;-63
2023/04/04 05:25:18;;;;;;;;;;;;;;;5.97;74.28;102390.81;7349182;19;20157;-63
2023/04/04 05:27:47;;;;;;;;;;;;;;;5.93;74.84;102396.28;7354035;19;19923;-63
2023/04/04 05:30:14;;;;;;;;;;;;;;;5.85;74.70;102393.19;7354354;19;20255;-66
2023/04/04 05:32:43;;;;;;;;;;;;;;;5.81;74.79;102404.75;7353825;19;20519;-64
2023/04/04 05:35:10;;;;;;;;;;;;;;;5.76;74.91;102399.78;7348706;19;19922;-66
2023/04/04 05:37:39;;;;;;;;;;;;;;;5.71;75.40;102403.56;7352790;19;19994;-65
2023/04/04 05:40:06;;;;;;;;;;;;;;;5.70;75.78;102404.47;7350974;19;19914;-65
2023/04/04 05:42:33;;;;;;;;;;;;;;;5.71;76.18;102406.16;7355518;19;20824;-65
2023/04/04 05:45:00;;;;;;;;;;;;;;;5.72;76.50;102411.31;7350504;19;19930;-63
2023/04/04 05:47:27;;;;;;;;;;;;;;;5.73;75.90;102410.41;7349620;19;19990;-64
2023/04/04 05:49:54;;;;;;;;;;;;;;;5.74;75.43;102406.84;7351625;19;20402;-64
2023/04/04 05:52:21;;;;;;;;;;;;;;;5.75;75.73;102408.53;7353265;19;19934;-65
2023/04/04 05:54:48;;;;;;;;;;;;;;;5.77;76.35;102409.31;7354015;19;19937;-65
2023/04/04 05:57:18;;;;;;;;;;;;;;;5.81;75.76;102415.19;7352163;19;20015;-65
2023/04/04 05:59:45;;;;;;;;;;;;;;;5.85;76.06;102408.88;7351600;19;20670;-65
2023/04/04 06:02:12;;;;;;;;;;;;;;;5.90;75.57;102420.78;7353679;19;19948;-64
2023/04/04 06:04:39;;;;;;;;;;;;;;;5.96;75.03;102425.69;7348670;19;19943;-64
2023/04/04 06:07:06;;;;;;;;;;;;;;;5.95;74.67;102424.00;7352046;19;20301;-65
2023/04/04 06:09:35;;;;;;;;;;;;;;;5.97;74.76;102413.47;7354812;19;19930;-66
2023/04/04 06:12:03;;;;;;;;;;;;;;;5.97;75.39;102414.31;7356608;19;19927;-66
2023/04/04 06:14:30;;;;;;;;;;;;;;;6.01;74.52;102415.81;7351713;19;19926;-64
2023/04/04 06:16:57;;;;;;;;;;;;;;;6.04;74.83;102421.81;7349944;19;19923;-64
2023/04/04 06:19:24;;;;;;;;;;;;;;;6.06;74.46;102418.19;7351335;19;19919;-63
2023/04/04 06:21:51;;;;;;;;;;;;;;;6.13;74.93;102429.16;7351199;19;20321;-63
2023/04/04 06:24:18;;;;;;;;;;;;;;;6.14;74.63;102430.84;7349279;19;19927;-64
2023/04/04 06:26:50;;;;;;;;;;;;;;;6.18;74.73;102429.75;7349086;19;19926;-65
2023/04/04 06:29:17;;;;;;;;;;;;;;;6.21;73.98;102427.78;7351612;19;19926;-63
2023/04/04 06:31:46;;;;;;;;;;;;;;;6.23;74.11;102438.16;7353380;19;19923;-64
2023/04/04 06:34:13;;;;;;;;;;;;;;;6.22;74.00;102439.09;7351114;19;19930;-63
2023/04/04 06:36:40;;;;;;;;;;;;;;;6.24;74.08;102438.09;7348763;19;20233;-62
2023/04/04 06:39:07;;;;;;;;;;;;;;;6.28;73.14;102438.75;7350235;19;20378;-64
2023/04/04 06:41:34;;;;;;;;;;;;;;;6.28;73.56;102447.44;7352907;19;19921;-66
2023/04/04 06:44:01;;;;;;;;;;;;;;;6.29;73.89;102441.28;7351790;19;19926;-65
2023/04/04 06:46:30;;;;;;;;;;;;;;;6.32;74.31;102440.25;7349537;19;20281;-65
2023/04/04 06:48:57;;;;;;;;;;;;;;;6.41;73.83;102448.44;7350365;19;19922;-64
2023/04/04 06:51:24;;;;;;;;;;;;;;;6.47;75.00;102451.63;7352181;19;19922;-63
2023/04/04 06:53:51;;;;;;;;;;;;;;;6.50;73.59;102449.72;7352338;19;21539;-65
2023/04/04 06:56:18;;;;;;;;;;;;;;;6.58;73.40;102449.25;7348180;19;19998;-64
2023/04/04 06:58:45;;;;;;;;;;;;;;;6.70;73.92;102446.81;7351903;19;19963;-64
2023/04/04 07:01:12;;;;;;;;;;;;;;;7.18;73.69;102450.94;7351218;19;19974;-63
2023/04/04 07:03:39;;;;;;;;;;;;;;;7.99;71.46;102453.88;7354966;19;20268;-64
2023/04/04 07:06:06;;;;;;;;;;;;;;;8.58;69.27;102450.94;7351585;19;19921;-65
2023/04/04 07:08:33;;;;;;;;;;;;;;;8.82;65.55;102447.66;7355439;19;19975;-64
2023/04/04 07:11:02;;;;;;;;;;;;;;;9.00;63.92;102456.94;7357661;19;19915;-65
2023/04/04 07:13:33;;;;;;;;;;;;;;;8.82;64.45;102453.75;7360130;19;19919;-65
2023/04/04 07:16:01;;;;;;;;;;;;;;;8.77;65.35;102447.97;7355160;19;19945;-64
2023/04/04 07:18:28;;;;;;;;;;;;;;;9.36;65.46;102454.44;7356689;19;20096;-66
2023/04/04 07:20:56;;;;;;;;;;;;;;;10.21;61.67;102452.88;7357139;19;19982;-66
2023/04/04 07:23:23;;;;;;;;;;;;;;;10.41;58.71;102447.06;7361774;19;20016;-64
2023/04/04 07:25:50;;;;;;;;;;;;;;;10.17;58.54;102454.06;7351071;19;19939;-65
2023/04/04 07:28:17;;;;;;;;;;;;;;;10.22;59.07;102441.41;7355216;19;20360;-66
2023/04/04 07:30:44;;;;;;;;;;;;;;;10.23;59.24;102454.47;7358249;19;19926;-66
2023/04/04 07:33:12;;;;;;;;;;;;;;;10.05;60.42;102453.13;7359536;19;19983;-64
2023/04/04 07:35:39;;;;;;;;;;;;;;;9.93;59.61;102451.38;7353174;19;20006;-66
2023/04/04 07:38:06;;;;;;;;;;;;;;;9.74;60.26;102437.84;7356709;19;20287;-65
2023/04/04 07:40:33;;;;;;;;;;;;;;;9.60;60.39;102430.09;7359396;19;19918;-65
2023/04/04 07:43:00;;;;;;;;;;;;;;;9.56;60.32;102431.22;7357135;19;19940;-66
2023/04/04 07:45:27;;;;;;;;;;;;;;;9.67;59.78;102432.16;7355549;19;19907;-64
2023/04/04 07:47:54;;;;;;;;;;;;;;;9.94;59.91;102439.06;7354417;19;19915;-66
2023/04/04 07:50:21;;;;;;;;;;;;;;;10.16;58.88;102431.31;7358342;19;20505;-64
2023/04/04 07:52:51;;;;;;;;;;;;;;;10.71;56.54;102422.91;7359282;19;19929;-64
2023/04/04 07:55:19;;;;;;;;;;;;;;;11.50;53.42;102425.56;7354758;19;19944;-65
2023/04/04 07:57:46;;;;;;;;;;;;;;;12.19;51.14;102415.69;7356569;19;20562;-66
2023/04/04 08:00:14;;;;;;;;;;;;;;;12.67;51.02;102412.66;7355756;19;21448;-64
2023/04/04 08:02:42;;;;;;;;;;;;;;;13.39;49.36;102415.38;7353371;19;20714;-64
2023/04/04 08:05:09;;;;;;;;;;;;;;;13.82;47.40;102428.34;7351491;19;20662;-64
2023/04/04 08:07:36;;;;;;;;;;;;;;;14.30;46.61;102418.72;7355166;19;20442;-65
2023/04/04 08:10:03;;;;;;;;;;;;;;;14.58;44.11;102419.72;7355429;19;19923;-65
2023/04/04 08:12:31;;;;;;;;;;;;;;;14.72;43.59;102414.03;7357606;19;20027;-65
2023/04/04 08:14:58;;;;;;;;;;;;;;;14.75;44.66;102411.09;7354431;19;19934;-66
2023/04/04 08:17:25;;;;;;;;;;;;;;;14.34;43.61;102419.28;7352179;19;20002;-65
2023/04/04 08:19:52;;;;;;;;;;;;;;;13.57;46.42;102416.41;7355689;19;20308;-65
2023/04/04 08:22:19;;;;;;;;;;;;;;;12.90;47.15;102405.47;7359170;19;19915;-64
2023/04/04 08:24:46;;;;;;;;;;;;;;;12.39;48.74;102404.34;7355410;19;20014;-65
2023/04/04 08:27:14;;;;;;;;;;;;;;;12.01;50.28;102406.63;7349103;19;20072;-67
2023/04/04 08:29:41;;;;;;;;;;;;;;;11.67;50.18;102403.16;7353505;19;21755;-64
2023/04/04 08:32:08;;;;;;;;;;;;;;;11.48;51.42;102413.44;7356232;19;20270;-66
2023/04/04 08:34:36;;;;;;;;;;;;;;;11.32;51.30;102398.00;7350395;19;19940;-65
2023/04/04 08:37:03;;;;;;;;;;;;;;;11.10;51.30;102408.50;7353143;19;20001;-63
2023/04/04 08:39:30;;;;;;;;;;;;;;;10.99;51.44;102405.84;7353120;19;20316;-65
2023/04/04 08:42:05;;;;;;;;;;;;;;;10.93;51.61;102393.16;7353543;19;20688;-65
2023/04/04 08:44:33;;;;;;;;;;;;;;;10.85;52.15;102400.78;7355192;19;19978;-67
2023/04/04 08:47:02;;;;;;;;;;;;;;;10.82;52.05;102404.47;7350636;19;19919;-64
2023/04/04 08:49:31;;;;;;;;;;;;;;;10.72;52.20;102400.84;7352226;19;20311;-63
2023/04/04 08:51:58;;;;;;;;;;;;;;;10.63;52.16;102397.13;7354273;19;19986;-65
2023/04/04 08:54:27;;;;;;;;;;;;;;;10.63;52.43;102389.22;7353201;19;19919;-68
2023/04/04 08:56:54;;;;;;;;;;;;;;;10.64;52.54;102395.34;7351453;19;20220;-64
2023/04/04 08:59:22;;;;;;;;;;;;;;;10.60;53.77;102400.00;7356536;19;19923;-65
2023/04/04 09:01:52;;;;;;;;;;;;;;;10.52;53.33;102394.44;7352461;19;19919;-63
2023/04/04 09:04:20;;;;;;;;;;;;;;;10.51;53.72;102397.22;7351339;19;19934;-64
2023/04/04 09:06:47;;;;;;;;;;;;;;;10.48;53.80;102397.44;7350545;19;19919;-64
2023/04/04 09:09:15;;;;;;;;;;;;;;;10.51;53.81;102405.94;7354680;19;19945;-64
2023/04/04 09:11:45;;;;;;;;;;;;;;;10.56;54.06;102398.56;7357113;19;19943;-64
2023/04/04 09:14:12;;;;;;;;;;;;;;;10.60;53.29;102405.28;7356043;19;19915;-65
2023/04/04 09:16:39;;;;;;;;;;;;;;;10.62;53.48;102400.72;7349371;19;19935;-64
2023/04/04 09:19:07;;;;;;;;;;;;;;;10.68;53.27;102400.25;7352344;19;19933;-65
2023/04/04 09:21:34;;;;;;;;;;;;;;;10.73;52.32;102402.53;7356230;19;19966;-64
2023/04/04 09:24:01;;;;;;;;;;;;;;;10.75;52.23;102403.28;7354222;19;20650;-65
2023/04/04 09:26:32;;;;;;;;;;;;;;;10.80;52.94;102395.88;7350060;19;19935;-64
2023/04/04 09:28:59;;;;;;;;;;;;;;;10.84;52.84;102401.75;7351161;19;19944;-64
2023/04/04 09:31:26;;;;;;;;;;;;;;;10.91;52.40;102405.59;7356303;19;19938;-64
2023/04/04 09:33:53;;;;;;;;;;;;;;;10.97;52.11;102402.50;7355254;19;19932;-65
2023/04/04 09:36:21;;;;;;;;;;;;;;;11.00;53.10;102392.56;7352597;19;19923;-66
2023/04/04 09:38:52;;;;;;;;;;;;;;;11.03;52.31;102392.31;7351247;19;19955;-64
2023/04/04 09:41:20;;;;;;;;;;;;;;;11.05;52.58;102392.22;7353032;19;20401;-63
2023/04/04 09:43:48;;;;;;;;;;;;;;;11.07;53.19;102387.69;7354109;19;19943;-63
2023/04/04 09:46:18;;;;;;;;;;;;;;;11.06;53.03;102383.38;7353914;19;20010;-65
2023/04/04 09:48:50;;;;;;;;;;;;;;;11.12;53.14;102389.00;7349417;19;20316;-63
2023/04/04 09:51:17;;;;;;;;;;;;;;;11.16;52.86;102386.97;7354186;19;19926;-63
2023/04/04 09:53:46;;;;;;;;;;;;;;;11.18;53.59;102376.31;7354057;19;20000;-65
2023/04/04 09:56:13;;;;;;;;;;;;;;;11.17;52.33;102377.28;7350669;19;20023;-66
2023/04/04 09:58:45;;;;;;;;;;;;;;;11.21;52.11;102369.03;7354118;19;19919;-64
2023/04/04 10:01:28;;;;;;;;;;;;;;;11.24;52.49;102370.56;7350968;19;19994;-63
2023/04/04 10:03:56;;;;;;;;;;;;;;;11.28;51.98;102361.47;7351913;19;19927;-64
2023/04/04 10:06:24;;;;;;;;;;;;;;;11.31;53.21;102363.88;7348601;19;19922;-63
2023/04/04 10:08:51;;;;;;;;;;;;;;;11.37;52.46;102361.59;7349714;19;20465;-63
2023/04/04 10:11:28;;;;;;;;;;;;;;;11.43;51.84;102358.47;7352563;19;19926;-63
2023/04/04 10:13:56;;;;;;;;;;;;;;;11.49;51.26;102360.63;7354530;19;20360;-63
2023/04/04 10:16:24;;;;;;;;;;;;;;;11.51;50.44;102369.25;7345120;19;19919;-63
2023/04/04 10:18:51;;;;;;;;;;;;;;;11.53;49.50;102374.38;7348839;19;19921;-62
2023/04/04 10:21:18;;;;;;;;;;;;;;;11.52;48.36;102367.47;7354284;19;19933;-65
2023/04/04 10:23:45;;;;;;;;;;;;;;;11.53;50.00;102366.47;7352398;19;19973;-64
2023/04/04 10:26:13;;;;;;;;;;;;;;;11.50;49.44;102372.00;7350506;19;19919;-64
2023/04/04 10:28:41;;;;;;;;;;;;;;;11.52;49.27;102365.69;7350646;19;20750;-64
2023/04/04 10:31:14;;;;;;;;;;;;;;;11.51;48.77;102366.63;7348502;19;19995;-63
2023/04/04 10:33:50;;;;;;;;;;;;;;;11.55;49.24;102368.06;7351773;19;20360;-64
2023/04/04 10:36:21;;;;;;;;;;;;;;;11.64;49.70;102361.22;7348485;19;19919;-66
2023/04/04 10:38:54;;;;;;;;;;;;;;;11.68;49.03;102352.13;7353607;19;20005;-64
2023/04/04 10:41:22;;;;;;;;;;;;;;;11.75;49.22;102340.13;7356537;19;20669;-64
2023/04/04 10:43:52;;;;;;;;;;;;;;;11.81;48.73;102349.34;7357131;19;19963;-63
2023/04/04 10:46:22;;;;;;;;;;;;;;;11.86;48.64;102344.56;7351670;19;19918;-64
2023/04/04 10:48:49;;;;;;;;;;;;;;;11.89;48.82;102344.28;7355092;19;19937;-63
2023/04/04 10:51:17;;;;;;;;;;;;;;;11.89;49.29;102345.13;7357831;19;20468;-64
2023/04/04 10:53:44;;;;;;;;;;;;;;;11.90;48.05;102327.50;7360658;19;19918;-63
2023/04/04 10:56:11;;;;;;;;;;;;;;;11.90;47.55;102333.63;7355494;19;19962;-64
2023/04/04 10:58:40;;;;;;;;;;;;;;;11.92;47.40;102318.53;7358158;19;19926;-63
2023/04/04 11:01:08;;;;;;;;;;;;;;;11.91;47.48;102326.56;7358767;19;21038;-65
2023/04/04 11:03:55;;;;;;;;;;;;;;;11.91;47.48;102323.91;7356321;19;19923;-63
2023/04/04 11:06:38;;;;;;;;;;;;;;;11.91;47.43;102318.63;7354322;19;19919;-63
2023/04/04 11:09:06;;;;;;;;;;;;;;;11.94;47.37;102324.50;7358116;19;19915;-63
2023/04/04 11:11:52;;;;;;;;;;;;;;;12.02;47.48;102315.13;7358995;19;20015;-64
2023/04/04 11:14:28;;;;;;;;;;;;;;;12.08;47.79;102312.84;7357180;19;19926;-63
2023/04/04 11:16:56;;;;;;;;;;;;;;;12.13;47.53;102317.75;7356175;19;19931;-63
2023/04/04 11:19:24;;;;;;;;;;;;;;;12.15;47.31;102321.06;7353690;19;19923;-63
2023/04/04 11:21:52;;;;;;;;;;;;;;;12.22;47.39;102323.09;7360695;19;20511;-62
2023/04/04 11:24:19;;;;;;;;;;;;;;;12.22;47.64;102322.25;7359070;19;19921;-64
2023/04/04 11:26:46;;;;;;;;;;;;;;;12.21;47.88;102331.97;7353590;19;19935;-63
2023/04/04 11:29:19;;;;;;;;;;;;;;;12.25;47.81;102327.25;7354706;19;19950;-64
2023/04/04 11:31:48;;;;;;;;;;;;;;;12.26;47.69;102313.94;7354444;19;19951;-63
2023/04/04 11:34:28;;;;;;;;;;;;;;;12.29;47.82;102313.69;7357378;19;19925;-62
2023/04/04 11:36:56;;;;;;;;;;;;;;;12.37;48.15;102321.81;7354827;19;19927;-63
2023/04/04 11:39:25;;;;;;;;;;;;;;;12.44;47.57;102322.16;7358078;19;19918;-63
2023/04/04 11:41:56;;;;;;;;;;;;;;;12.50;46.45;102318.13;7355875;19;19918;-65
2023/04/04 11:44:28;;;;;;;;;;;;;;;12.52;46.78;102314.44;7358052;19;19990;-63
2023/04/04 11:46:56;;;;;;;;;;;;;;;12.61;46.06;102316.28;7349619;19;19918;-63
2023/04/04 11:49:27;;;;;;;;;;;;;;;12.62;46.79;102309.19;7355548;19;20508;-63
2023/04/04 11:51:55;;;;;;;;;;;;;;;12.64;46.35;102323.13;7358530;19;19955;-64
2023/04/04 11:54:22;;;;;;;;;;;;;;;12.67;47.91;102317.56;7354944;19;20622;-64
2023/04/04 11:56:49;;;;;;;;;;;;;;;12.70;45.59;102323.44;7353296;19;20584;-63
2023/04/04 11:59:18;;;;;;;;;;;;;;;12.75;45.22;102325.69;7354465;19;19922;-63
2023/04/04 12:01:45;;;;;;;;;;;;;;;12.76;45.36;102322.06;7351514;19;19919;-63
2023/04/04 12:04:13;;;;;;;;;;;;;;;12.74;44.59;102326.66;7352350;19;19986;-63
2023/04/04 12:06:41;;;;;;;;;;;;;;;12.75;46.02;102318.59;7354533;19;19934;-64
2023/04/04 12:09:12;;;;;;;;;;;;;;;12.79;44.32;102316.56;7354559;19;19986;-64
2023/04/04 12:11:39;;;;;;;;;;;;;;;12.81;44.86;102309.31;7358364;19;19918;-63
2023/04/04 12:14:13;;;;;;;;;;;;;;;12.86;45.72;102307.97;7356965;19;20102;-64
2023/04/04 12:16:44;;;;;;;;;;;;;;;12.95;44.21;102309.00;7351649;19;20011;-65
2023/04/04 12:19:12;;;;;;;;;;;;;;;13.01;44.40;102297.03;7352456;19;19915;-65
2023/04/04 12:21:39;;;;;;;;;;;;;;;13.07;43.20;102301.78;7356409;19;19925;-64
2023/04/04 12:24:07;;;;;;;;;;;;;;;13.09;43.13;102300.72;7353249;19;20018;-64
2023/04/04 12:26:36;;;;;;;;;;;;;;;13.11;42.83;102300.56;7355054;19;20337;-64
2023/04/04 12:29:04;;;;;;;;;;;;;;;13.17;42.80;102300.06;7355142;19;19922;-65
2023/04/04 12:31:34;;;;;;;;;;;;;;;13.14;42.64;102298.53;7348276;19;19949;-63
2023/04/04 12:34:01;;;;;;;;;;;;;;;13.14;42.61;102295.06;7355353;19;19911;-67
2023/04/04 12:36:29;;;;;;;;;;;;;;;13.08;43.06;102283.19;7353507;19;19950;-65
2023/04/04 12:39:05;;;;;;;;;;;;;;;13.07;43.09;102286.78;7352013;19;19982;-63
2023/04/04 12:41:32;;;;;;;;;;;;;;;13.08;43.10;102282.34;7356702;19;19932;-63
2023/04/04 12:44:01;;;;;;;;;;;;;;;13.10;44.22;102288.34;7356366;19;19922;-65
2023/04/04 12:46:35;;;;;;;;;;;;;;;13.14;43.91;102287.97;7351470;19;19915;-65